createdAt,value
2018-05-01T00:00:40.146Z,8.15
2018-05-01T00:01:41.015Z,8.15
2018-05-01T00:02:40.170Z,8.15
2018-05-01T00:03:40.182Z,8.19
2018-05-01T00:04:40.267Z,8.12
2018-05-01T00:05:40.118Z,8.22
2018-05-01T00:06:40.256Z,8.19
2018-05-01T00:07:40.115Z,8.19
2018-05-01T00:08:40.124Z,8.18
2018-05-01T00:09:40.187Z,8.08
2018-05-01T00:10:40.173Z,8.04
2018-05-01T00:11:40.138Z,8.05
2018-05-01T00:12:40.158Z,8.07
2018-05-01T00:13:40.148Z,8.04
2018-05-01T00:14:40.188Z,8.01
2018-05-01T00:15:40.132Z,8.01
2018-05-01T00:16:40.145Z,8.01
2018-05-01T00:17:40.108Z,7.97
2018-05-01T00:18:40.230Z,7.97
2018-05-01T00:19:40.139Z,7.98
2018-05-01T00:20:40.119Z,7.87
2018-05-01T00:21:40.171Z,7.93
2018-05-01T00:22:40.221Z,8.02
2018-05-01T00:23:40.176Z,7.98
2018-05-01T00:24:40.354Z,7.98
2018-05-01T00:25:40.145Z,7.97
2018-05-01T00:26:40.101Z,8.01
2018-05-01T00:27:40.119Z,8.01
2018-05-01T00:28:40.110Z,7.97
2018-05-01T00:29:41.103Z,7.93
2018-05-01T00:30:40.138Z,7.86
2018-05-01T00:31:40.135Z,7.92
2018-05-01T00:32:40.264Z,7.97
2018-05-01T00:33:40.175Z,7.87
2018-05-01T00:34:40.161Z,7.89
2018-05-01T00:35:40.132Z,7.82
2018-05-01T00:36:40.140Z,7.86
2018-05-01T00:37:40.129Z,7.83
2018-05-01T00:38:40.210Z,7.83
2018-05-01T00:39:40.147Z,7.83
2018-05-01T00:40:40.204Z,7.80
2018-05-01T00:41:40.087Z,7.85
2018-05-01T00:42:40.142Z,7.90
2018-05-01T00:43:40.156Z,7.92
2018-05-01T00:44:40.103Z,7.82
2018-05-01T00:45:40.093Z,7.83
2018-05-01T00:46:40.211Z,7.85
2018-05-01T00:47:40.147Z,7.74
2018-05-01T00:48:40.144Z,7.82
2018-05-01T00:49:40.112Z,7.72
2018-05-01T00:50:40.189Z,7.82
2018-05-01T00:51:40.073Z,7.77
2018-05-01T00:52:40.166Z,7.79
2018-05-01T00:53:40.053Z,7.80
2018-05-01T00:54:40.084Z,7.80
2018-05-01T00:55:40.069Z,7.71
2018-05-01T00:56:40.178Z,7.68
2018-05-01T00:57:40.140Z,7.71
2018-05-01T00:58:43.116Z,7.68
2018-05-01T00:59:40.141Z,7.69
2018-05-01T01:00:40.176Z,7.71
2018-05-01T01:01:40.104Z,7.71
2018-05-01T01:02:40.139Z,7.69
2018-05-01T01:03:40.203Z,7.61
2018-05-01T01:04:40.303Z,7.61
2018-05-01T01:05:40.171Z,7.63
2018-05-01T01:06:40.093Z,7.60
2018-05-01T01:07:40.237Z,7.58
2018-05-01T01:08:40.145Z,7.60
2018-05-01T01:09:40.186Z,7.61
2018-05-01T01:10:40.130Z,7.53
2018-05-01T01:11:40.134Z,7.50
2018-05-01T01:12:40.158Z,7.60
2018-05-01T01:13:40.078Z,7.60
2018-05-01T01:14:40.140Z,7.49
2018-05-01T01:15:40.089Z,7.58
2018-05-01T01:16:40.120Z,7.55
2018-05-01T01:17:40.910Z,7.57
2018-05-01T01:18:40.138Z,7.50
2018-05-01T01:19:40.106Z,7.50
2018-05-01T01:20:40.330Z,7.45
2018-05-01T01:21:40.088Z,7.45
2018-05-01T01:22:40.156Z,7.49
2018-05-01T01:23:40.166Z,7.46
2018-05-01T01:24:40.316Z,7.48
2018-05-01T01:25:40.103Z,7.50
2018-05-01T01:26:40.210Z,7.46
2018-05-01T01:27:40.097Z,7.48
2018-05-01T01:28:40.185Z,7.45
2018-05-01T01:29:40.156Z,7.48
2018-05-01T01:30:40.167Z,7.46
2018-05-01T01:31:40.081Z,7.46
2018-05-01T01:32:40.102Z,7.42
2018-05-01T01:33:40.336Z,7.43
2018-05-01T01:34:40.125Z,7.48
2018-05-01T01:35:40.110Z,7.48
2018-05-01T01:36:40.058Z,7.43
2018-05-01T01:37:40.484Z,7.49
2018-05-01T01:38:40.071Z,7.46
2018-05-01T01:39:40.216Z,7.50
2018-05-01T01:40:40.082Z,7.43
2018-05-01T01:41:40.118Z,7.48
2018-05-01T01:42:40.169Z,7.55
2018-05-01T01:43:40.135Z,7.49
2018-05-01T01:44:40.119Z,7.53
2018-05-01T01:45:40.198Z,7.45
2018-05-01T01:46:40.153Z,7.48
2018-05-01T01:47:40.129Z,7.48
2018-05-01T01:48:40.095Z,7.50
2018-05-01T01:49:40.140Z,7.43
2018-05-01T01:50:40.150Z,7.45
2018-05-01T01:51:40.120Z,7.43
2018-05-01T01:52:40.929Z,7.46
2018-05-01T01:53:40.051Z,7.42
2018-05-01T01:54:40.086Z,7.46
2018-05-01T01:55:40.161Z,7.45
2018-05-01T01:56:40.187Z,7.45
2018-05-01T01:57:40.189Z,7.49
2018-05-01T01:58:40.113Z,7.45
2018-05-01T01:59:40.108Z,7.45
2018-05-01T02:00:40.130Z,7.48
2018-05-01T02:01:40.179Z,7.42
2018-05-01T02:02:40.127Z,7.45
2018-05-01T02:03:40.108Z,7.46
2018-05-01T02:04:40.303Z,7.40
2018-05-01T02:05:40.155Z,7.35
2018-05-01T02:06:40.167Z,7.45
2018-05-01T02:07:40.054Z,7.42
2018-05-01T02:08:40.164Z,7.39
2018-05-01T02:09:40.072Z,7.43
2018-05-01T02:10:40.202Z,7.42
2018-05-01T02:11:40.346Z,7.39
2018-05-01T02:12:40.107Z,7.35
2018-05-01T02:13:40.063Z,7.43
2018-05-01T02:14:40.118Z,7.43
2018-05-01T02:15:40.145Z,7.43
2018-05-01T02:16:40.129Z,7.49
2018-05-01T02:17:40.166Z,7.39
2018-05-01T02:18:40.149Z,7.40
2018-05-01T02:19:40.179Z,7.42
2018-05-01T02:20:40.263Z,7.48
2018-05-01T02:21:40.267Z,7.40
2018-05-01T02:22:40.114Z,7.42
2018-05-01T02:23:40.121Z,7.45
2018-05-01T02:24:40.089Z,7.48
2018-05-01T02:25:40.179Z,7.48
2018-05-01T02:26:40.185Z,7.46
2018-05-01T02:27:40.170Z,7.46
2018-05-01T02:28:40.063Z,7.50
2018-05-01T02:29:40.192Z,7.45
2018-05-01T02:30:40.943Z,7.35
2018-05-01T02:31:40.222Z,7.37
2018-05-01T02:32:40.432Z,7.43
2018-05-01T02:33:41.163Z,7.39
2018-05-01T02:34:40.207Z,7.42
2018-05-01T02:35:40.154Z,7.37
2018-05-01T02:36:40.181Z,7.46
2018-05-01T02:37:40.104Z,7.46
2018-05-01T02:38:40.082Z,7.48
2018-05-01T02:39:40.229Z,7.43
2018-05-01T02:40:40.300Z,7.42
2018-05-01T02:41:40.356Z,7.37
2018-05-01T02:42:40.147Z,7.39
2018-05-01T02:43:40.122Z,7.32
2018-05-01T02:44:40.092Z,7.37
2018-05-01T02:45:40.089Z,7.37
2018-05-01T02:46:40.216Z,7.40
2018-05-01T02:47:40.145Z,7.40
2018-05-01T02:48:40.116Z,7.42
2018-05-01T02:49:40.123Z,7.31
2018-05-01T02:50:40.233Z,7.40
2018-05-01T02:51:40.064Z,7.40
2018-05-01T02:52:40.127Z,7.42
2018-05-01T02:53:40.229Z,7.40
2018-05-01T02:54:40.119Z,7.40
2018-05-01T02:55:40.109Z,7.37
2018-05-01T02:56:40.082Z,7.43
2018-05-01T02:57:40.171Z,7.39
2018-05-01T02:58:40.163Z,7.37
2018-05-01T02:59:40.117Z,7.42
2018-05-01T03:00:40.152Z,7.34
2018-05-01T03:01:40.101Z,7.40
2018-05-01T03:02:40.127Z,7.39
2018-05-01T03:03:40.043Z,7.32
2018-05-01T03:04:40.104Z,7.42
2018-05-01T03:05:40.075Z,7.45
2018-05-01T03:06:40.114Z,7.48
2018-05-01T03:07:40.162Z,7.40
2018-05-01T03:08:40.099Z,7.42
2018-05-01T03:09:40.059Z,7.31
2018-05-01T03:10:40.160Z,7.35
2018-05-01T03:11:40.260Z,7.35
2018-05-01T03:12:40.105Z,7.37
2018-05-01T03:13:40.189Z,7.37
2018-05-01T03:14:41.742Z,7.40
2018-05-01T03:15:40.209Z,7.35
2018-05-01T03:16:40.091Z,7.39
2018-05-01T03:17:40.112Z,7.34
2018-05-01T03:18:40.180Z,7.32
2018-05-01T03:19:40.050Z,7.39
2018-05-01T03:20:40.169Z,7.30
2018-05-01T03:21:40.102Z,7.31
2018-05-01T03:22:40.066Z,7.34
2018-05-01T03:23:40.073Z,7.30
2018-05-01T03:24:40.249Z,7.30
2018-05-01T03:25:40.275Z,7.40
2018-05-01T03:26:40.150Z,7.42
2018-05-01T03:27:40.098Z,7.40
2018-05-01T03:28:40.082Z,7.39
2018-05-01T03:29:40.028Z,7.34
2018-05-01T03:30:40.141Z,7.42
2018-05-01T03:31:40.083Z,7.34
2018-05-01T03:32:40.047Z,7.35
2018-05-01T03:33:40.054Z,7.40
2018-05-01T03:34:40.114Z,7.34
2018-05-01T03:35:40.128Z,7.42
2018-05-01T03:36:40.046Z,7.42
2018-05-01T03:37:40.057Z,7.34
2018-05-01T03:38:40.072Z,7.43
2018-05-01T03:39:40.065Z,7.43
2018-05-01T03:40:40.062Z,7.40
2018-05-01T03:41:40.310Z,7.42
2018-05-01T03:42:40.257Z,7.43
2018-05-01T03:43:40.240Z,7.46
2018-05-01T03:44:40.065Z,7.40
2018-05-01T03:45:40.015Z,7.43
2018-05-01T03:46:40.199Z,7.39
2018-05-01T03:47:40.094Z,7.42
2018-05-01T03:48:40.165Z,7.48
2018-05-01T03:49:40.156Z,7.42
2018-05-01T03:50:40.538Z,7.37
2018-05-01T03:51:40.126Z,7.35
2018-05-01T03:52:40.062Z,7.48
2018-05-01T03:53:40.162Z,7.40
2018-05-01T03:54:40.607Z,7.30
2018-05-01T03:55:40.042Z,7.40
2018-05-01T03:56:40.056Z,7.43
2018-05-01T03:57:40.069Z,7.42
2018-05-01T03:58:39.996Z,7.35
2018-05-01T03:59:40.069Z,7.40
2018-05-01T04:00:40.139Z,7.43
2018-05-01T04:01:40.222Z,7.45
2018-05-01T04:02:40.033Z,7.46
2018-05-01T04:03:40.024Z,7.43
2018-05-01T04:04:40.040Z,7.42
2018-05-01T04:05:40.079Z,7.37
2018-05-01T04:06:40.098Z,7.46
2018-05-01T04:07:40.053Z,7.43
2018-05-01T04:08:40.119Z,7.43
2018-05-01T04:09:40.056Z,7.40
2018-05-01T04:10:40.042Z,7.42
2018-05-01T04:11:40.051Z,7.42
2018-05-01T04:12:40.012Z,7.39
2018-05-01T04:13:40.021Z,7.28
2018-05-01T04:14:40.117Z,7.34
2018-05-01T04:15:40.112Z,7.40
2018-05-01T04:16:40.182Z,7.42
2018-05-01T04:17:40.045Z,7.42
2018-05-01T04:18:40.040Z,7.32
2018-05-01T04:19:40.037Z,7.27
2018-05-01T04:20:40.092Z,7.30
2018-05-01T04:21:40.131Z,7.30
2018-05-01T04:22:40.174Z,7.37
2018-05-01T04:23:40.084Z,7.32
2018-05-01T04:24:39.996Z,7.25
2018-05-01T04:25:40.076Z,7.31
2018-05-01T04:26:40.064Z,7.28
2018-05-01T04:27:40.294Z,7.21
2018-05-01T04:28:40.018Z,7.27
2018-05-01T04:29:40.032Z,7.34
2018-05-01T04:30:40.291Z,7.40
2018-05-01T04:31:40.038Z,7.32
2018-05-01T04:32:40.166Z,7.37
2018-05-01T04:33:40.093Z,7.42
2018-05-01T04:34:40.015Z,7.37
2018-05-01T04:35:40.037Z,7.39
2018-05-01T04:36:40.249Z,7.37
2018-05-01T04:37:40.183Z,7.42
2018-05-01T04:38:40.191Z,7.45
2018-05-01T04:39:40.123Z,7.42
2018-05-01T04:40:39.977Z,7.42
2018-05-01T04:41:40.072Z,7.42
2018-05-01T04:42:40.094Z,7.43
2018-05-01T04:43:40.077Z,7.43
2018-05-01T04:44:40.027Z,7.40
2018-05-01T04:45:40.100Z,7.43
2018-05-01T04:46:40.067Z,7.45
2018-05-01T04:47:40.032Z,7.53
2018-05-01T04:48:40.032Z,7.57
2018-05-01T04:49:40.026Z,7.49
2018-05-01T04:50:40.240Z,7.45
2018-05-01T04:51:40.067Z,7.46
2018-05-01T04:52:40.050Z,7.50
2018-05-01T04:53:40.035Z,7.53
2018-05-01T04:54:40.130Z,7.52
2018-05-01T04:55:40.131Z,7.43
2018-05-01T04:56:40.149Z,7.46
2018-05-01T04:57:40.013Z,7.50
2018-05-01T04:58:40.100Z,7.50
2018-05-01T04:59:40.036Z,7.50
2018-05-01T05:00:40.023Z,7.45
2018-05-01T05:01:40.185Z,7.48
2018-05-01T05:02:40.125Z,7.53
2018-05-01T05:03:40.034Z,7.55
2018-05-01T05:04:40.116Z,7.53
2018-05-01T05:05:39.971Z,7.48
2018-05-01T05:06:40.123Z,7.43
2018-05-01T05:07:40.213Z,7.43
2018-05-01T05:08:40.086Z,7.43
2018-05-01T05:09:40.040Z,7.42
2018-05-01T05:10:40.128Z,7.53
2018-05-01T05:11:40.005Z,7.53
2018-05-01T05:12:40.093Z,7.43
2018-05-01T05:13:39.970Z,7.49
2018-05-01T05:14:40.013Z,7.50
2018-05-01T05:15:40.048Z,7.55
2018-05-01T05:16:40.046Z,7.52
2018-05-01T05:17:39.977Z,7.52
2018-05-01T05:18:40.065Z,7.46
2018-05-01T05:19:40.054Z,7.55
2018-05-01T05:20:40.053Z,7.58
2018-05-01T05:21:40.030Z,7.61
2018-05-01T05:22:40.041Z,7.61
2018-05-01T05:23:40.028Z,7.57
2018-05-01T05:24:40.134Z,7.68
2018-05-01T05:25:39.968Z,7.67
2018-05-01T05:26:40.043Z,7.71
2018-05-01T05:27:39.957Z,7.68
2018-05-01T05:28:40.028Z,7.69
2018-05-01T05:29:40.014Z,7.63
2018-05-01T05:30:40.072Z,7.64
2018-05-01T05:31:39.986Z,7.71
2018-05-01T05:32:40.160Z,7.60
2018-05-01T05:33:40.037Z,7.60
2018-05-01T05:34:40.070Z,7.67
2018-05-01T05:35:40.074Z,7.64
2018-05-01T05:36:40.063Z,7.68
2018-05-01T05:37:40.067Z,7.64
2018-05-01T05:38:40.112Z,7.71
2018-05-01T05:39:40.136Z,7.75
2018-05-01T05:40:40.001Z,7.80
2018-05-01T05:41:40.022Z,7.86
2018-05-01T05:42:39.944Z,7.83
2018-05-01T05:43:39.964Z,7.83
2018-05-01T05:44:39.966Z,7.82
2018-05-01T05:45:40.056Z,7.82
2018-05-01T05:46:40.172Z,7.83
2018-05-01T05:47:39.989Z,7.87
2018-05-01T05:48:40.093Z,7.90
2018-05-01T05:49:40.064Z,7.86
2018-05-01T05:50:40.074Z,7.89
2018-05-01T05:51:40.110Z,7.85
2018-05-01T05:52:40.080Z,7.82
2018-05-01T05:53:40.000Z,7.86
2018-05-01T05:54:40.062Z,7.82
2018-05-01T05:55:39.975Z,7.79
2018-05-01T05:56:40.079Z,7.83
2018-05-01T05:57:40.102Z,7.90
2018-05-01T05:58:40.033Z,7.89
2018-05-01T05:59:40.026Z,7.87
2018-05-01T06:00:39.963Z,7.79
2018-05-01T06:01:40.135Z,7.85
2018-05-01T06:02:40.097Z,7.89
2018-05-01T06:03:40.066Z,7.90
2018-05-01T06:04:40.098Z,7.92
2018-05-01T06:05:40.087Z,7.86
2018-05-01T06:06:40.075Z,7.89
2018-05-01T06:07:40.063Z,7.83
2018-05-01T06:08:40.236Z,7.89
2018-05-01T06:09:40.129Z,7.79
2018-05-01T06:10:40.041Z,7.71
2018-05-01T06:11:40.112Z,7.87
2018-05-01T06:12:40.044Z,7.92
2018-05-01T06:13:39.998Z,7.92
2018-05-01T06:14:39.994Z,7.90
2018-05-01T06:15:39.995Z,7.87
2018-05-01T06:16:40.273Z,7.90
2018-05-01T06:17:40.045Z,7.98
2018-05-01T06:18:39.990Z,7.92
2018-05-01T06:19:40.033Z,7.90
2018-05-01T06:20:39.993Z,7.85
2018-05-01T06:21:39.995Z,7.86
2018-05-01T06:22:40.023Z,7.85
2018-05-01T06:23:40.339Z,7.89
2018-05-01T06:24:39.944Z,7.93
2018-05-01T06:25:40.066Z,7.97
2018-05-01T06:26:40.015Z,8.00
2018-05-01T06:27:40.036Z,7.87
2018-05-01T06:28:40.016Z,7.86
2018-05-01T06:29:40.026Z,7.82
2018-05-01T06:30:40.048Z,7.83
2018-05-01T06:31:40.070Z,7.82
2018-05-01T06:32:40.176Z,7.89
2018-05-01T06:33:40.595Z,7.89
2018-05-01T06:34:40.007Z,7.87
2018-05-01T06:35:40.028Z,7.90
2018-05-01T06:36:40.042Z,7.98
2018-05-01T06:37:40.009Z,8.00
2018-05-01T06:38:40.092Z,8.12
2018-05-01T06:39:40.010Z,8.10
2018-05-01T06:40:40.050Z,8.04
2018-05-01T06:41:40.017Z,8.05
2018-05-01T06:42:40.989Z,8.10
2018-05-01T06:43:40.085Z,8.10
2018-05-01T06:44:40.053Z,8.08
2018-05-01T06:45:40.162Z,8.05
2018-05-01T06:46:40.196Z,8.11
2018-05-01T06:47:40.108Z,8.08
2018-05-01T06:48:40.058Z,8.10
2018-05-01T06:49:41.628Z,8.15
2018-05-01T06:50:40.233Z,8.23
2018-05-01T06:51:40.038Z,8.20
2018-05-01T06:52:40.189Z,8.07
2018-05-01T06:53:39.985Z,8.08
2018-05-01T06:54:40.181Z,8.08
2018-05-01T06:55:40.217Z,8.16
2018-05-01T06:56:40.056Z,8.20
2018-05-01T06:57:40.056Z,8.23
2018-05-01T06:58:39.994Z,8.20
2018-05-01T06:59:39.984Z,8.30
2018-05-01T07:00:39.965Z,8.20
2018-05-01T07:01:40.070Z,8.18
2018-05-01T07:02:40.064Z,8.19
2018-05-01T07:03:39.997Z,8.28
2018-05-01T07:04:40.078Z,8.19
2018-05-01T07:05:40.084Z,8.25
2018-05-01T07:06:39.945Z,8.18
2018-05-01T07:07:40.121Z,8.22
2018-05-01T07:08:40.250Z,8.25
2018-05-01T07:09:40.025Z,8.30
2018-05-01T07:10:40.000Z,8.40
2018-05-01T07:11:39.998Z,8.40
2018-05-01T07:12:39.995Z,8.33
2018-05-01T07:13:40.003Z,8.36
2018-05-01T07:14:40.049Z,8.38
2018-05-01T07:15:40.115Z,8.30
2018-05-01T07:16:39.985Z,8.36
2018-05-01T07:17:40.187Z,8.26
2018-05-01T07:18:40.193Z,8.26
2018-05-01T07:19:40.012Z,8.29
2018-05-01T07:20:40.189Z,8.34
2018-05-01T07:21:40.058Z,8.30
2018-05-01T07:22:39.981Z,8.33
2018-05-01T07:23:40.114Z,8.41
2018-05-01T07:24:39.990Z,8.45
2018-05-01T07:25:40.037Z,8.48
2018-05-01T07:26:40.195Z,8.44
2018-05-01T07:27:40.205Z,8.48
2018-05-01T07:28:39.946Z,8.59
2018-05-01T07:29:40.006Z,8.62
2018-05-01T07:30:39.995Z,8.58
2018-05-01T07:31:40.039Z,8.52
2018-05-01T07:32:39.976Z,8.53
2018-05-01T07:33:40.485Z,8.62
2018-05-01T07:34:39.975Z,8.58
2018-05-01T07:35:40.160Z,8.58
2018-05-01T07:36:39.989Z,8.50
2018-05-01T07:37:39.992Z,8.53
2018-05-01T07:38:40.054Z,8.48
2018-05-01T07:39:40.153Z,8.45
2018-05-01T07:40:40.024Z,8.33
2018-05-01T07:41:40.016Z,8.36
2018-05-01T07:42:40.001Z,8.36
2018-05-01T07:43:40.134Z,8.37
2018-05-01T07:44:39.976Z,8.30
2018-05-01T07:45:40.167Z,8.29
2018-05-01T07:46:40.082Z,8.50
2018-05-01T07:47:40.001Z,8.56
2018-05-01T07:48:40.035Z,8.65
2018-05-01T07:49:40.023Z,8.62
2018-05-01T07:50:40.149Z,8.63
2018-05-01T07:51:39.959Z,8.59
2018-05-01T07:52:39.990Z,8.58
2018-05-01T07:53:39.920Z,8.58
2018-05-01T07:54:40.051Z,8.56
2018-05-01T07:55:40.082Z,8.74
2018-05-01T07:56:40.000Z,8.76
2018-05-01T07:57:40.482Z,8.61
2018-05-01T07:58:40.130Z,8.66
2018-05-01T07:59:40.179Z,8.61
2018-05-01T08:00:39.978Z,8.61
2018-05-01T08:01:39.993Z,8.71
2018-05-01T08:02:40.111Z,8.76
2018-05-01T08:03:39.959Z,8.77
2018-05-01T08:04:39.999Z,8.68
2018-05-01T08:05:39.957Z,8.59
2018-05-01T08:06:39.959Z,8.63
2018-05-01T08:07:40.061Z,8.65
2018-05-01T08:08:40.077Z,8.58
2018-05-01T08:09:39.998Z,8.66
2018-05-01T08:10:40.000Z,8.74
2018-05-01T08:11:40.145Z,8.73
2018-05-01T08:12:40.120Z,8.74
2018-05-01T08:13:40.008Z,8.76
2018-05-01T08:14:40.120Z,8.61
2018-05-01T08:15:40.010Z,8.76
2018-05-01T08:16:40.198Z,8.71
2018-05-01T08:17:40.031Z,8.76
2018-05-01T08:18:40.285Z,8.73
2018-05-01T08:19:40.045Z,8.71
2018-05-01T08:20:40.061Z,8.79
2018-05-01T08:21:40.037Z,8.80
2018-05-01T08:22:40.136Z,8.63
2018-05-01T08:23:39.977Z,8.68
2018-05-01T08:24:40.065Z,8.71
2018-05-01T08:25:39.982Z,8.76
2018-05-01T08:26:40.114Z,8.65
2018-05-01T08:27:39.998Z,8.76
2018-05-01T08:28:40.198Z,8.79
2018-05-01T08:29:40.026Z,8.87
2018-05-01T08:30:40.238Z,8.77
2018-05-01T08:31:40.015Z,8.86
2018-05-01T08:32:40.100Z,8.83
2018-05-01T08:33:40.046Z,8.83
2018-05-01T08:34:39.959Z,8.84
2018-05-01T08:35:40.071Z,9.04
2018-05-01T08:36:40.050Z,9.04
2018-05-01T08:37:40.229Z,9.15
2018-05-01T08:38:40.033Z,9.23
2018-05-01T08:39:40.101Z,9.15
2018-05-01T08:40:40.214Z,9.20
2018-05-01T08:41:39.965Z,9.17
2018-05-01T08:42:40.220Z,9.24
2018-05-01T08:43:40.016Z,9.50
2018-05-01T08:44:39.996Z,9.48
2018-05-01T08:45:39.995Z,9.75
2018-05-01T08:46:39.993Z,9.78
2018-05-01T08:47:40.118Z,9.78
2018-05-01T08:48:39.994Z,9.94
2018-05-01T08:49:40.067Z,10.02
2018-05-01T08:50:40.053Z,10.04
2018-05-01T08:51:40.052Z,9.89
2018-05-01T08:52:39.974Z,9.76
2018-05-01T08:53:39.980Z,10.07
2018-05-01T08:54:40.020Z,10.25
2018-05-01T08:55:40.008Z,10.30
2018-05-01T08:56:40.001Z,10.55
2018-05-01T08:57:40.046Z,10.88
2018-05-01T08:58:40.012Z,10.84
2018-05-01T08:59:40.995Z,11.29
2018-05-01T09:00:40.138Z,11.61
2018-05-01T09:01:40.015Z,11.61
2018-05-01T09:02:40.224Z,11.95
2018-05-01T09:03:40.144Z,11.73
2018-05-01T09:04:40.038Z,11.75
2018-05-01T09:05:40.026Z,11.70
2018-05-01T09:06:39.955Z,11.24
2018-05-01T09:07:40.039Z,10.86
2018-05-01T09:08:39.994Z,10.53
2018-05-01T09:09:40.012Z,10.38
2018-05-01T09:10:40.061Z,10.25
2018-05-01T09:11:40.003Z,10.17
2018-05-01T09:12:39.979Z,10.09
2018-05-01T09:13:39.996Z,10.02
2018-05-01T09:14:39.982Z,10.18
2018-05-01T09:15:40.129Z,10.22
2018-05-01T09:16:40.094Z,10.18
2018-05-01T09:17:40.085Z,10.05
2018-05-01T09:18:40.271Z,9.90
2018-05-01T09:19:40.329Z,9.90
2018-05-01T09:20:40.047Z,9.90
2018-05-01T09:21:40.328Z,9.86
2018-05-01T09:22:40.033Z,9.89
2018-05-01T09:23:40.093Z,10.05
2018-05-01T09:24:40.088Z,10.22
2018-05-01T09:25:40.114Z,10.42
2018-05-01T09:26:40.050Z,10.38
2018-05-01T09:27:40.021Z,10.33
2018-05-01T09:28:40.032Z,10.60
2018-05-01T09:29:40.024Z,10.85
2018-05-01T09:30:40.033Z,10.89
2018-05-01T09:31:40.019Z,11.17
2018-05-01T09:32:40.046Z,11.22
2018-05-01T09:33:40.026Z,11.15
2018-05-01T09:34:40.001Z,11.15
2018-05-01T09:35:40.075Z,11.07
2018-05-01T09:36:40.109Z,10.74
2018-05-01T09:37:40.027Z,10.74
2018-05-01T09:38:40.018Z,11.00
2018-05-01T09:39:40.173Z,11.39
2018-05-01T09:40:40.094Z,11.27
2018-05-01T09:41:40.185Z,11.32
2018-05-01T09:42:40.119Z,11.22
2018-05-01T09:43:40.027Z,11.46
2018-05-01T09:44:40.007Z,11.40
2018-05-01T09:45:40.096Z,11.49
2018-05-01T09:46:40.104Z,11.78
2018-05-01T09:47:40.046Z,12.07
2018-05-01T09:48:40.081Z,12.04
2018-05-01T09:49:40.125Z,11.90
2018-05-01T09:50:40.112Z,12.01
2018-05-01T09:51:40.048Z,12.24
2018-05-01T09:52:40.139Z,12.38
2018-05-01T09:53:40.205Z,12.19
2018-05-01T09:54:40.148Z,12.31
2018-05-01T09:55:40.157Z,12.42
2018-05-01T09:56:40.178Z,12.32
2018-05-01T09:57:40.184Z,12.14
2018-05-01T09:58:40.212Z,12.09
2018-05-01T09:59:40.222Z,12.12
2018-05-01T10:00:40.076Z,12.09
2018-05-01T10:01:40.233Z,12.86
2018-05-01T10:02:40.300Z,12.77
2018-05-01T10:03:40.237Z,12.86
2018-05-01T10:04:40.090Z,12.86
2018-05-01T10:05:40.216Z,12.74
2018-05-01T10:06:40.116Z,12.49
2018-05-01T10:07:40.106Z,12.53
2018-05-01T10:08:40.112Z,12.41
2018-05-01T10:09:40.234Z,12.38
2018-05-01T10:10:40.289Z,12.38
2018-05-01T10:11:40.104Z,12.32
2018-05-01T10:12:42.609Z,11.90
2018-05-01T10:13:40.234Z,11.94
2018-05-01T10:14:40.198Z,11.94
2018-05-01T10:15:40.182Z,12.13
2018-05-01T10:16:40.268Z,11.96
2018-05-01T10:17:40.165Z,11.88
2018-05-01T10:18:40.118Z,11.83
2018-05-01T10:19:40.168Z,11.99
2018-05-01T10:20:40.100Z,11.98
2018-05-01T10:21:40.205Z,12.05
2018-05-01T10:22:40.263Z,12.14
2018-05-01T10:23:40.093Z,12.16
2018-05-01T10:24:40.152Z,12.32
2018-05-01T10:25:40.350Z,12.50
2018-05-01T10:26:40.185Z,12.96
2018-05-01T10:27:40.366Z,13.17
2018-05-01T10:28:40.250Z,13.20
2018-05-01T10:29:40.228Z,13.38
2018-05-01T10:30:40.150Z,13.17
2018-05-01T10:31:40.293Z,13.04
2018-05-01T10:32:40.202Z,12.97
2018-05-01T10:33:40.387Z,13.00
2018-05-01T10:34:40.154Z,13.19
2018-05-01T10:35:40.118Z,13.52
2018-05-01T10:36:40.180Z,13.87
2018-05-01T10:37:40.131Z,13.81
2018-05-01T10:38:40.455Z,13.91
2018-05-01T10:39:40.301Z,14.03
2018-05-01T10:40:40.169Z,13.96
2018-05-01T10:41:40.338Z,14.03
2018-05-01T10:42:40.213Z,13.77
2018-05-01T10:43:40.241Z,13.59
2018-05-01T10:44:40.383Z,13.36
2018-05-01T10:45:40.232Z,13.51
2018-05-01T10:46:40.378Z,13.42
2018-05-01T10:47:40.278Z,13.71
2018-05-01T10:48:40.318Z,13.60
2018-05-01T10:49:40.210Z,13.66
2018-05-01T10:50:40.201Z,13.57
2018-05-01T10:51:41.033Z,13.77
2018-05-01T10:52:40.183Z,13.48
2018-05-01T10:53:40.210Z,13.10
2018-05-01T10:54:40.187Z,13.08
2018-05-01T10:55:40.232Z,13.01
2018-05-01T10:56:40.254Z,13.19
2018-05-01T10:57:40.355Z,13.03
2018-05-01T10:58:40.281Z,12.95
2018-05-01T10:59:40.407Z,13.44
2018-05-01T11:00:40.299Z,13.29
2018-05-01T11:01:40.267Z,13.10
2018-05-01T11:02:40.265Z,13.11
2018-05-01T11:03:40.380Z,13.46
2018-05-01T11:04:40.234Z,13.63
2018-05-01T11:05:40.227Z,13.78
2018-05-01T11:06:40.274Z,13.66
2018-05-01T11:07:40.257Z,13.75
2018-05-01T11:08:40.474Z,13.63
2018-05-01T11:09:40.543Z,13.79
2018-05-01T11:10:40.259Z,13.73
2018-05-01T11:11:40.309Z,13.51
2018-05-01T11:12:40.331Z,13.29
2018-05-01T11:13:40.346Z,13.26
2018-05-01T11:14:40.280Z,13.19
2018-05-01T11:15:40.489Z,13.42
2018-05-01T11:16:40.371Z,13.73
2018-05-01T11:17:40.246Z,13.88
2018-05-01T11:18:40.283Z,13.99
2018-05-01T11:19:40.300Z,14.29
2018-05-01T11:20:40.212Z,14.03
2018-05-01T11:21:40.297Z,13.87
2018-05-01T11:22:40.286Z,14.17
2018-05-01T11:23:40.239Z,14.03
2018-05-01T11:24:40.285Z,13.97
2018-05-01T11:25:40.243Z,14.14
2018-05-01T11:26:40.248Z,14.36
2018-05-01T11:27:40.390Z,14.39
2018-05-01T11:28:40.310Z,14.73
2018-05-01T11:29:40.335Z,14.58
2018-05-01T11:30:40.348Z,14.18
2018-05-01T11:31:40.308Z,14.43
2018-05-01T11:32:41.048Z,14.51
2018-05-01T11:33:40.431Z,14.84
2018-05-01T11:34:40.337Z,14.47
2018-05-01T11:35:40.291Z,14.52
2018-05-01T11:36:40.311Z,14.45
2018-05-01T11:37:40.404Z,14.62
2018-05-01T11:38:40.291Z,14.78
2018-05-01T11:39:40.332Z,14.94
2018-05-01T11:40:40.339Z,14.83
2018-05-01T11:41:40.301Z,14.86
2018-05-01T11:42:40.419Z,14.96
2018-05-01T11:43:40.500Z,15.13
2018-05-01T11:44:40.336Z,15.03
2018-05-01T11:45:40.401Z,14.88
2018-05-01T11:46:40.529Z,14.94
2018-05-01T11:47:40.390Z,14.68
2018-05-01T11:48:40.328Z,14.52
2018-05-01T11:49:40.641Z,14.58
2018-05-01T11:50:41.105Z,14.64
2018-05-01T11:51:41.052Z,14.64
2018-05-01T11:52:40.499Z,14.21
2018-05-01T11:53:40.374Z,14.39
2018-05-01T11:54:40.329Z,14.62
2018-05-01T11:55:40.437Z,14.60
2018-05-01T11:56:40.388Z,14.91
2018-05-01T11:57:40.400Z,15.13
2018-05-01T11:58:40.340Z,15.27
2018-05-01T11:59:40.655Z,15.17
2018-05-01T12:00:40.402Z,14.94
2018-05-01T12:01:40.472Z,14.62
2018-05-01T12:02:40.434Z,14.60
2018-05-01T12:03:40.398Z,14.58
2018-05-01T12:04:40.378Z,14.69
2018-05-01T12:05:40.401Z,14.83
2018-05-01T12:06:40.442Z,14.95
2018-05-01T12:07:40.417Z,15.02
2018-05-01T12:08:40.416Z,14.92
2018-05-01T12:09:40.383Z,14.80
2018-05-01T12:10:40.384Z,14.78
2018-05-01T12:11:40.411Z,14.95
2018-05-01T12:12:40.458Z,14.94
2018-05-01T12:13:40.433Z,15.09
2018-05-01T12:14:40.430Z,14.78
2018-05-01T12:15:40.596Z,15.01
2018-05-01T12:16:40.537Z,15.20
2018-05-01T12:17:40.479Z,15.68
2018-05-01T12:18:40.444Z,15.80
2018-05-01T12:19:41.069Z,15.87
2018-05-01T12:20:40.417Z,15.72
2018-05-01T12:21:40.858Z,15.87
2018-05-01T12:22:40.426Z,16.07
2018-05-01T12:23:40.547Z,15.80
2018-05-01T12:24:40.403Z,15.62
2018-05-01T12:25:40.523Z,15.60
2018-05-01T12:26:40.499Z,15.28
2018-05-01T12:27:40.503Z,15.47
2018-05-01T12:28:40.492Z,15.76
2018-05-01T12:29:40.594Z,15.83
2018-05-01T12:30:40.504Z,15.76
2018-05-01T12:31:40.559Z,15.67
2018-05-01T12:32:40.414Z,15.65
2018-05-01T12:33:40.437Z,15.68
2018-05-01T12:34:40.532Z,15.83
2018-05-01T12:35:40.533Z,15.80
2018-05-01T12:36:40.653Z,15.71
2018-05-01T12:37:40.500Z,15.82
2018-05-01T12:38:40.494Z,15.75
2018-05-01T12:39:40.478Z,16.04
2018-05-01T12:40:40.544Z,16.04
2018-05-01T12:41:40.462Z,15.86
2018-05-01T12:42:40.565Z,15.83
2018-05-01T12:43:40.564Z,15.86
2018-05-01T12:44:40.442Z,15.93
2018-05-01T12:45:40.643Z,15.86
2018-05-01T12:46:40.485Z,15.83
2018-05-01T12:47:40.502Z,15.75
2018-05-01T12:48:40.508Z,15.82
2018-05-01T12:49:40.618Z,15.59
2018-05-01T12:50:40.492Z,15.71
2018-05-01T12:51:40.548Z,15.84
2018-05-01T12:52:40.469Z,15.65
2018-05-01T12:53:40.558Z,15.87
2018-05-01T12:54:40.550Z,15.82
2018-05-01T12:55:40.562Z,15.82
2018-05-01T12:56:40.573Z,15.44
2018-05-01T12:57:40.563Z,15.49
2018-05-01T12:58:40.508Z,14.94
2018-05-01T12:59:40.526Z,14.83
2018-05-01T13:00:40.633Z,15.02
2018-05-01T13:01:40.544Z,15.20
2018-05-01T13:02:40.529Z,15.19
2018-05-01T13:03:40.499Z,14.80
2018-05-01T13:04:40.519Z,14.98
2018-05-01T13:05:40.655Z,15.09
2018-05-01T13:06:40.569Z,15.20
2018-05-01T13:07:40.725Z,15.17
2018-05-01T13:08:40.630Z,15.35
2018-05-01T13:09:40.523Z,15.47